createdAt,value
2018-12-17T00:00:30.896Z,83.73
2018-12-17T00:02:58.543Z,83.65
2018-12-17T00:05:26.096Z,83.83
2018-12-17T00:07:53.695Z,84.30
2018-12-17T00:10:21.355Z,83.83
2018-12-17T00:12:48.971Z,83.33
2018-12-17T00:15:16.569Z,83.81
2018-12-17T00:17:44.200Z,83.50
2018-12-17T00:20:11.798Z,83.04
2018-12-17T00:22:39.416Z,83.36
2018-12-17T00:25:07.078Z,83.51
2018-12-17T00:27:34.706Z,84.22
2018-12-17T00:30:02.357Z,84.09
2018-12-17T00:32:30.019Z,84.01
2018-12-17T00:34:57.590Z,84.28
2018-12-17T00:37:25.188Z,84.59
2018-12-17T00:39:52.751Z,84.39
2018-12-17T00:42:20.728Z,85.01
2018-12-17T00:44:48.649Z,84.97
2018-12-17T00:47:16.237Z,84.27
2018-12-17T00:49:43.786Z,84.78
2018-12-17T00:52:11.383Z,84.06
2018-12-17T00:54:38.972Z,84.46
2018-12-17T00:57:06.706Z,84.34
2018-12-17T00:59:34.269Z,84.83
2018-12-17T01:02:01.885Z,84.45
2018-12-17T01:04:29.487Z,85.09
2018-12-17T01:06:57.090Z,85.20
2018-12-17T01:09:24.704Z,85.32
2018-12-17T01:11:52.622Z,85.39
2018-12-17T01:14:20.208Z,84.68
2018-12-17T01:16:47.780Z,84.58
2018-12-17T01:19:15.373Z,84.42
2018-12-17T01:21:43.445Z,84.33
2018-12-17T01:24:11.017Z,83.57
2018-12-17T01:26:39.067Z,83.39
2018-12-17T01:29:06.643Z,83.96
2018-12-17T01:31:34.542Z,83.61
2018-12-17T01:34:02.122Z,83.72
2018-12-17T01:36:29.760Z,83.72
2018-12-17T01:38:57.342Z,84.08
2018-12-17T01:41:25.224Z,84.06
2018-12-17T01:43:52.811Z,83.26
2018-12-17T01:46:20.440Z,83.40
2018-12-17T01:48:48.023Z,83.62
2018-12-17T01:51:15.684Z,83.48
2018-12-17T01:53:43.251Z,83.11
2018-12-17T01:56:10.901Z,83.11
2018-12-17T01:58:38.494Z,83.29
2018-12-17T02:01:06.066Z,83.19
2018-12-17T02:03:33.663Z,82.62
2018-12-17T02:06:01.219Z,83.02
2018-12-17T02:08:29.070Z,82.66
2018-12-17T02:10:56.626Z,83.17
2018-12-17T02:13:24.514Z,83.52
2018-12-17T02:15:52.046Z,83.30
2018-12-17T02:18:19.646Z,83.33
2018-12-17T02:20:47.232Z,83.14
2018-12-17T02:23:14.805Z,83.27
2018-12-17T02:25:42.416Z,82.96
2018-12-17T02:28:10.015Z,83.07
2018-12-17T02:30:37.657Z,83.77
2018-12-17T02:33:05.327Z,83.53
2018-12-17T02:35:32.901Z,83.88
2018-12-17T02:38:00.474Z,83.81
2018-12-17T02:40:28.174Z,83.44
2018-12-17T02:42:55.853Z,83.34
2018-12-17T02:45:23.440Z,83.11
2018-12-17T02:47:51.005Z,83.19
2018-12-17T02:50:18.564Z,82.79
2018-12-17T02:52:46.121Z,82.81
2018-12-17T02:55:13.686Z,82.99
2018-12-17T02:57:41.349Z,82.84
2018-12-17T03:00:09.068Z,82.58
2018-12-17T03:02:36.644Z,82.71
2018-12-17T03:05:06.095Z,83.25
2018-12-17T03:07:33.652Z,83.02
2018-12-17T03:10:01.216Z,82.52
2018-12-17T03:12:28.811Z,83.36
2018-12-17T03:14:56.801Z,84.48
2018-12-17T03:17:24.675Z,84.46
2018-12-17T03:19:52.238Z,85.21
2018-12-17T03:22:20.122Z,84.62
2018-12-17T03:24:47.746Z,84.30
2018-12-17T03:27:15.350Z,84.70
2018-12-17T03:29:42.954Z,84.50
2018-12-17T03:32:10.525Z,83.70
2018-12-17T03:34:38.132Z,83.85
2018-12-17T03:37:05.981Z,84.32
2018-12-17T03:39:33.555Z,84.65
2018-12-17T03:42:01.207Z,84.20
2018-12-17T03:44:28.813Z,84.45
2018-12-17T03:46:56.401Z,83.27
2018-12-17T03:49:23.999Z,83.42
2018-12-17T03:51:51.659Z,83.36
2018-12-17T03:54:19.221Z,83.68
2018-12-17T03:56:46.838Z,83.31
2018-12-17T03:59:14.766Z,83.05
2018-12-17T04:01:42.359Z,83.31
2018-12-17T04:04:09.902Z,83.26
2018-12-17T04:06:37.508Z,83.01
2018-12-17T04:09:06.521Z,82.98
2018-12-17T04:11:34.055Z,83.15
2018-12-17T04:14:02.062Z,83.16
2018-12-17T04:16:29.627Z,82.68
2018-12-17T04:18:57.210Z,82.57
2018-12-17T04:21:24.751Z,83.11
2018-12-17T04:23:52.392Z,82.23
2018-12-17T04:26:19.969Z,81.66
2018-12-17T04:28:47.967Z,82.57
2018-12-17T04:31:15.503Z,82.77
2018-12-17T04:33:43.087Z,82.83
2018-12-17T04:36:10.705Z,83.25
2018-12-17T04:38:38.275Z,83.10
2018-12-17T04:41:05.844Z,83.25
2018-12-17T04:43:33.397Z,83.07
2018-12-17T04:46:01.083Z,83.05
2018-12-17T04:48:28.934Z,82.75
2018-12-17T04:50:56.562Z,82.83
2018-12-17T04:53:24.148Z,82.86
2018-12-17T04:55:51.750Z,83.56
2018-12-17T04:58:19.589Z,82.91
2018-12-17T05:00:47.167Z,82.82
2018-12-17T05:03:14.805Z,83.20
2018-12-17T05:05:42.383Z,83.15
2018-12-17T05:08:09.978Z,82.58
2018-12-17T05:10:37.574Z,82.52
2018-12-17T05:13:05.136Z,82.53
2018-12-17T05:15:32.783Z,83.04
2018-12-17T05:18:00.533Z,82.74
2018-12-17T05:20:28.171Z,82.98
2018-12-17T05:22:55.745Z,82.60
2018-12-17T05:25:23.344Z,83.88
2018-12-17T05:27:50.910Z,83.37
2018-12-17T05:30:18.516Z,83.25
2018-12-17T05:32:46.099Z,83.74
2018-12-17T05:35:13.796Z,83.27
2018-12-17T05:37:41.405Z,83.31
2018-12-17T05:40:09.113Z,83.42
2018-12-17T05:42:37.292Z,83.39
2018-12-17T05:45:05.593Z,82.92
2018-12-17T05:47:33.150Z,83.15
2018-12-17T05:50:00.765Z,82.83
2018-12-17T05:52:28.367Z,83.45
2018-12-17T05:54:55.957Z,83.56
2018-12-17T05:57:23.537Z,84.50
2018-12-17T05:59:51.115Z,84.62
2018-12-17T06:02:18.720Z,84.53
2018-12-17T06:04:46.319Z,84.22
2018-12-17T06:07:13.924Z,84.78
2018-12-17T06:09:41.626Z,84.35
2018-12-17T06:12:09.254Z,84.31
2018-12-17T06:14:36.864Z,85.13
2018-12-17T06:17:04.484Z,84.60
2018-12-17T06:19:32.365Z,85.29
2018-12-17T06:21:59.986Z,84.46
2018-12-17T06:24:27.662Z,84.02
2018-12-17T06:26:55.307Z,84.85
2018-12-17T06:29:22.907Z,84.36
2018-12-17T06:31:50.530Z,84.51
2018-12-17T06:34:18.236Z,84.26
2018-12-17T06:36:45.872Z,85.33
2018-12-17T06:39:14.829Z,85.55
2018-12-17T06:41:42.585Z,85.65
2018-12-17T06:44:10.208Z,85.69
2018-12-17T06:46:37.866Z,84.80
2018-12-17T06:49:05.455Z,84.99
2018-12-17T06:51:33.351Z,84.99
2018-12-17T06:54:01.302Z,84.28
2018-12-17T06:56:28.915Z,84.25
2018-12-17T06:58:56.537Z,84.46
2018-12-17T07:01:24.114Z,85.05
2018-12-17T07:03:51.708Z,84.91
2018-12-17T07:06:19.243Z,84.66
2018-12-17T07:08:46.859Z,84.90
2018-12-17T07:11:14.538Z,84.22
2018-12-17T07:13:42.115Z,84.35
2018-12-17T07:16:09.829Z,84.98
2018-12-17T07:18:37.732Z,84.46
2018-12-17T07:21:05.271Z,84.53
2018-12-17T07:23:32.867Z,85.01
2018-12-17T07:26:00.440Z,84.92
2018-12-17T07:28:28.043Z,84.90
2018-12-17T07:30:55.673Z,84.33
2018-12-17T07:33:23.319Z,84.45
2018-12-17T07:35:50.950Z,84.10
2018-12-17T07:38:18.611Z,84.09
2018-12-17T07:40:46.249Z,83.97
2018-12-17T07:43:13.808Z,84.09
2018-12-17T07:45:41.398Z,84.46
2018-12-17T07:48:08.964Z,83.61
2018-12-17T07:50:36.514Z,83.79
2018-12-17T07:53:04.143Z,83.68
2018-12-17T07:55:31.681Z,83.82
2018-12-17T07:57:59.269Z,83.70
2018-12-17T08:00:26.850Z,82.79
2018-12-17T08:02:54.416Z,83.34
2018-12-17T08:05:22.025Z,82.58
2018-12-17T08:07:49.563Z,82.32
2018-12-17T08:10:17.512Z,82.74
2018-12-17T08:12:45.074Z,83.24
2018-12-17T08:15:12.679Z,83.25
2018-12-17T08:17:40.260Z,82.52
2018-12-17T08:20:07.946Z,82.64
2018-12-17T08:22:35.661Z,82.69
2018-12-17T08:25:03.610Z,83.37
2018-12-17T08:27:31.204Z,82.97
2018-12-17T08:30:03.933Z,83.43
2018-12-17T08:32:28.740Z,82.70
2018-12-17T08:34:56.399Z,82.92
2018-12-17T08:37:24.068Z,81.97
2018-12-17T08:39:51.675Z,82.14
2018-12-17T08:42:19.236Z,81.54
2018-12-17T08:44:46.817Z,81.77
2018-12-17T08:47:14.403Z,82.35
2018-12-17T08:49:41.986Z,82.20
2018-12-17T08:52:09.611Z,81.85
2018-12-17T08:54:37.151Z,81.46
2018-12-17T08:57:04.952Z,81.43
2018-12-17T08:59:32.747Z,82.01
2018-12-17T09:02:00.290Z,81.21
2018-12-17T09:04:27.936Z,81.28
2018-12-17T09:06:55.494Z,81.02
2018-12-17T09:09:23.094Z,80.91
2018-12-17T09:11:50.660Z,81.21
2018-12-17T09:14:18.511Z,80.84
2018-12-17T09:16:46.170Z,81.00
2018-12-17T09:19:13.764Z,80.80
2018-12-17T09:21:41.669Z,81.51
2018-12-17T09:24:09.401Z,81.16
2018-12-17T09:26:36.981Z,81.87
2018-12-17T09:29:04.638Z,81.35
2018-12-17T09:31:32.241Z,81.82
2018-12-17T09:33:59.850Z,82.07
2018-12-17T09:36:27.427Z,81.22
2018-12-17T09:38:54.980Z,81.40
2018-12-17T09:41:22.609Z,81.32
2018-12-17T09:43:50.195Z,81.39
2018-12-17T09:46:17.868Z,81.50
2018-12-17T09:48:45.587Z,80.75
2018-12-17T09:51:19.356Z,80.64
2018-12-17T09:53:43.263Z,80.37
2018-12-17T09:56:10.844Z,80.76
2018-12-17T09:58:38.438Z,80.76
2018-12-17T10:01:06.228Z,80.48
2018-12-17T10:03:33.910Z,80.66
2018-12-17T10:06:01.490Z,81.04
2018-12-17T10:08:29.110Z,81.57
2018-12-17T10:10:56.692Z,81.64
2018-12-17T10:13:24.708Z,81.65
2018-12-17T10:15:52.297Z,81.85
2018-12-17T10:18:19.909Z,81.78
2018-12-17T10:20:47.550Z,82.24
2018-12-17T10:23:15.126Z,82.14
2018-12-17T10:25:42.769Z,81.79
2018-12-17T10:28:10.330Z,82.81
2018-12-17T10:30:37.978Z,82.17
2018-12-17T10:33:05.671Z,82.44
2018-12-17T10:35:33.310Z,81.89
2018-12-17T10:38:00.891Z,81.29
2018-12-17T10:40:28.765Z,80.98
2018-12-17T10:42:56.356Z,80.79
2018-12-17T10:45:24.069Z,80.40
2018-12-17T10:47:51.688Z,81.24
2018-12-17T10:50:19.281Z,80.86
2018-12-17T10:52:46.875Z,81.39
2018-12-17T10:55:14.428Z,80.78
2018-12-17T10:57:42.123Z,81.73
2018-12-17T11:00:13.219Z,82.56
2018-12-17T11:02:40.844Z,82.74
2018-12-17T11:05:10.473Z,83.77
2018-12-17T11:07:38.036Z,83.21
2018-12-17T11:10:06.589Z,83.91
2018-12-17T11:12:34.142Z,83.35
2018-12-17T11:15:01.803Z,83.37
2018-12-17T11:17:29.400Z,83.39
2018-12-17T11:19:57.008Z,83.74
2018-12-17T11:22:24.664Z,83.32
2018-12-17T11:24:52.256Z,83.78
2018-12-17T11:27:19.932Z,83.64
2018-12-17T11:29:47.510Z,83.29
2018-12-17T11:32:15.989Z,82.69
2018-12-17T11:34:43.597Z,83.36
2018-12-17T11:37:11.205Z,82.74
2018-12-17T11:39:38.771Z,82.86
2018-12-17T11:42:06.409Z,83.10
2018-12-17T11:44:34.016Z,83.08
2018-12-17T11:47:01.629Z,82.50
2018-12-17T11:49:29.245Z,83.10
2018-12-17T11:51:56.801Z,82.63
2018-12-17T11:54:24.416Z,81.98
2018-12-17T11:59:58.693Z,81.51
2018-12-17T12:02:26.647Z,82.01
2018-12-17T12:04:54.302Z,82.12
2018-12-17T12:07:21.872Z,81.53
2018-12-17T12:09:49.461Z,82.71
2018-12-17T12:12:17.121Z,82.47
2018-12-17T12:14:44.717Z,82.45
2018-12-17T12:17:12.279Z,82.94
2018-12-17T12:19:39.827Z,82.80
2018-12-17T12:22:07.798Z,82.83
2018-12-17T12:24:35.648Z,82.81
2018-12-17T12:27:03.269Z,84.31
2018-12-17T12:29:30.860Z,83.88
2018-12-17T12:31:58.477Z,83.87
2018-12-17T12:34:26.258Z,84.08
2018-12-17T12:36:53.887Z,84.28
2018-12-17T12:39:21.457Z,84.01
2018-12-17T12:41:49.053Z,83.94
2018-12-17T12:44:16.621Z,84.04
2018-12-17T12:46:44.188Z,84.09
2018-12-17T12:49:11.772Z,84.69
2018-12-17T12:51:39.344Z,85.12
2018-12-17T12:54:06.965Z,84.52
2018-12-17T12:56:34.510Z,85.25
2018-12-17T12:59:02.066Z,84.98
2018-12-17T13:01:29.695Z,85.20
2018-12-17T13:03:57.346Z,84.94
2018-12-17T13:06:24.891Z,84.56
2018-12-17T13:08:52.542Z,84.52
2018-12-17T13:11:20.129Z,84.53
2018-12-17T13:13:47.740Z,85.23
2018-12-17T13:16:15.332Z,85.65
2018-12-17T13:18:43.043Z,84.86
2018-12-17T13:21:10.658Z,84.82
2018-12-17T13:23:38.660Z,85.35
2018-12-17T13:26:06.534Z,85.01
2018-12-17T13:28:34.259Z,84.50
2018-12-17T13:31:01.875Z,84.58
2018-12-17T13:33:29.500Z,84.71
2018-12-17T13:35:57.087Z,85.25
2018-12-17T13:38:25.044Z,84.33
2018-12-17T13:40:52.611Z,84.85
2018-12-17T13:43:20.951Z,84.90
2018-12-17T13:45:48.526Z,84.59
2018-12-17T13:48:16.210Z,84.35
2018-12-17T13:50:43.831Z,84.80
2018-12-17T13:53:17.361Z,84.73
2018-12-17T13:55:45.042Z,84.74
2018-12-17T13:58:12.685Z,84.44
2018-12-17T14:00:40.493Z,85.10
2018-12-17T14:03:08.425Z,85.23
2018-12-17T14:05:36.071Z,84.94
2018-12-17T14:08:03.625Z,84.96
2018-12-17T14:10:51.051Z,84.99
2018-12-17T14:13:18.813Z,84.54
2018-12-17T14:15:51.963Z,84.84
2018-12-17T14:18:25.891Z,85.27
2018-12-17T14:23:56.273Z,85.27
2018-12-17T14:26:23.892Z,85.66
2018-12-17T14:28:51.534Z,85.82
2018-12-17T14:31:19.259Z,85.23
2018-12-17T14:33:49.590Z,86.18
2018-12-17T14:36:17.444Z,85.95
2018-12-17T14:38:45.014Z,86.19
2018-12-17T14:41:12.672Z,85.91
2018-12-17T14:43:40.269Z,86.19
2018-12-17T14:46:08.040Z,86.98
2018-12-17T14:48:35.890Z,86.65
2018-12-17T14:51:03.533Z,87.12
2018-12-17T14:53:31.106Z,86.75
2018-12-17T14:55:58.804Z,87.33
2018-12-17T14:58:26.361Z,87.70
2018-12-17T15:00:53.978Z,87.71
2018-12-17T15:03:21.571Z,87.73
2018-12-17T15:05:49.238Z,87.38
2018-12-17T15:08:16.846Z,87.14
2018-12-17T15:10:44.515Z,87.44
2018-12-17T15:13:12.213Z,87.39
2018-12-17T15:15:39.779Z,87.51
2018-12-17T15:18:07.523Z,87.16
2018-12-17T15:20:35.154Z,87.63
2018-12-17T15:23:02.748Z,87.39
2018-12-17T15:25:30.551Z,87.41
2018-12-17T15:27:58.207Z,87.29
2018-12-17T15:30:25.988Z,87.38
2018-12-17T15:32:53.739Z,87.79
2018-12-17T15:35:21.562Z,87.34
2018-12-17T15:37:49.193Z,87.86
2018-12-17T15:40:16.752Z,88.10
2018-12-17T15:42:44.366Z,87.72
2018-12-17T15:45:12.260Z,88.25
2018-12-17T15:47:39.854Z,88.18
2018-12-17T15:50:08.141Z,88.14
2018-12-17T15:52:35.793Z,88.48
2018-12-17T15:55:04.074Z,88.32
2018-12-17T15:57:31.623Z,88.17
2018-12-17T15:59:59.230Z,87.98
2018-12-17T16:02:26.828Z,87.87
2018-12-17T16:04:54.432Z,87.65
2018-12-17T16:07:22.840Z,88.12
2018-12-17T16:09:52.566Z,88.05
2018-12-17T16:12:20.354Z,87.99
2018-12-17T16:14:47.929Z,87.39
2018-12-17T16:17:15.607Z,87.46
2018-12-17T16:19:43.226Z,87.27
2018-12-17T16:22:10.799Z,87.06
2018-12-17T16:24:38.495Z,87.38
2018-12-17T16:27:06.210Z,86.99
2018-12-17T16:29:33.855Z,87.42
2018-12-17T16:32:01.628Z,87.17
2018-12-17T16:34:29.307Z,87.57
2018-12-17T16:36:57.101Z,86.93
2018-12-17T16:39:24.891Z,87.02
2018-12-17T16:41:52.548Z,86.81
2018-12-17T16:44:20.155Z,86.86
2018-12-17T16:46:47.769Z,86.74
2018-12-17T16:49:15.384Z,86.91
2018-12-17T16:51:42.952Z,87.49
2018-12-17T16:54:10.597Z,87.45
2018-12-17T16:56:39.112Z,87.86
2018-12-17T16:59:07.656Z,87.90
2018-12-17T17:01:35.306Z,88.11
2018-12-17T17:04:02.899Z,88.24
2018-12-17T17:06:30.584Z,87.54
2018-12-17T17:08:58.961Z,87.68
2018-12-17T17:11:26.721Z,87.20
2018-12-17T17:13:54.310Z,87.89
2018-12-17T17:16:21.944Z,87.77
2018-12-17T17:18:49.633Z,87.63
2018-12-17T17:21:18.477Z,87.09
2018-12-17T17:23:46.190Z,87.12
2018-12-17T17:26:13.799Z,87.02
2018-12-17T17:28:41.397Z,86.72
2018-12-17T17:31:09.451Z,86.56
2018-12-17T17:33:37.017Z,86.83
2018-12-17T17:36:04.647Z,87.21
2018-12-17T17:38:32.336Z,87.24
2018-12-17T17:41:00.028Z,87.24
2018-12-17T17:43:27.652Z,87.37
2018-12-17T17:45:55.246Z,87.40
2018-12-17T17:48:22.822Z,86.92
2018-12-17T17:53:24.375Z,86.92
2018-12-17T17:55:52.326Z,87.24
2018-12-17T17:58:19.898Z,86.96
2018-12-17T18:00:47.606Z,87.01
2018-12-17T18:03:15.202Z,86.89
2018-12-17T18:05:42.776Z,87.37
2018-12-17T18:08:10.372Z,87.56
2018-12-17T18:10:38.220Z,87.13
2018-12-17T18:13:06.274Z,87.71
2018-12-17T18:15:33.822Z,87.37
2018-12-17T18:18:01.933Z,87.77
2018-12-17T18:20:29.589Z,87.16
2018-12-17T18:22:57.279Z,87.54
2018-12-17T18:25:25.012Z,87.03
2018-12-17T18:27:52.599Z,87.40
2018-12-17T18:30:20.239Z,86.95
2018-12-17T18:32:47.879Z,87.21
2018-12-17T18:35:15.508Z,87.09
2018-12-17T18:37:43.464Z,86.53
2018-12-17T18:40:11.049Z,86.57
2018-12-17T18:42:38.751Z,86.47
2018-12-17T18:45:08.356Z,86.53
2018-12-17T18:47:35.973Z,86.60
2018-12-17T18:50:04.352Z,87.05
2018-12-17T18:52:31.979Z,86.84
2018-12-17T18:54:59.660Z,86.84
2018-12-17T18:57:27.289Z,87.10
2018-12-17T18:59:54.849Z,86.87
2018-12-17T19:02:22.517Z,86.96
2018-12-17T19:04:50.152Z,87.13
2018-12-17T19:07:17.771Z,87.51
2018-12-17T19:09:45.386Z,87.55
2018-12-17T19:12:12.974Z,87.36
2018-12-17T19:14:41.034Z,87.49
2018-12-17T19:17:08.647Z,86.85
2018-12-17T19:19:36.309Z,87.22
2018-12-17T19:22:04.022Z,87.36
2018-12-17T19:24:31.615Z,87.45
2018-12-17T19:26:59.253Z,87.29
2018-12-17T19:29:26.879Z,87.42
2018-12-17T19:31:55.083Z,86.79
2018-12-17T19:34:22.717Z,86.88
2018-12-17T19:36:50.325Z,86.81
2018-12-17T19:39:17.913Z,87.03
2018-12-17T19:41:45.627Z,86.91
2018-12-17T19:44:13.458Z,86.30
2018-12-17T19:46:41.057Z,86.51
2018-12-17T19:49:09.042Z,86.48
2018-12-17T19:51:36.623Z,87.05
2018-12-17T19:54:04.235Z,87.17
2018-12-17T19:56:31.895Z,86.29
2018-12-17T19:58:59.549Z,86.45
2018-12-17T20:01:27.126Z,86.51
2018-12-17T20:03:54.729Z,86.61
2018-12-17T20:06:22.368Z,86.19
2018-12-17T20:08:50.047Z,86.79
2018-12-17T20:11:17.724Z,87.03
2018-12-17T20:13:45.349Z,87.09
2018-12-17T20:16:12.966Z,86.53
2018-12-17T20:18:40.588Z,87.10
2018-12-17T20:21:08.216Z,87.17
2018-12-17T20:23:36.224Z,87.28
2018-12-17T20:26:04.269Z,86.87
2018-12-17T20:28:32.661Z,87.11
2018-12-17T20:31:00.444Z,87.48
2018-12-17T20:33:28.056Z,87.60
2018-12-17T20:35:55.822Z,86.99
2018-12-17T20:38:23.744Z,87.03
2018-12-17T20:40:54.490Z,87.05
2018-12-17T20:43:22.210Z,87.56
2018-12-17T20:45:50.059Z,87.29
2018-12-17T20:48:17.678Z,87.50
2018-12-17T20:50:45.289Z,87.34
2018-12-17T20:53:13.167Z,87.83
2018-12-17T20:55:40.865Z,87.57
2018-12-17T20:58:08.443Z,87.31
2018-12-17T21:00:36.105Z,86.96
2018-12-17T21:03:03.842Z,87.34
2018-12-17T21:05:31.441Z,87.14
2018-12-17T21:07:59.200Z,87.12
2018-12-17T21:10:26.870Z,87.30
2018-12-17T21:12:54.818Z,87.34
2018-12-17T21:15:22.448Z,87.21
2018-12-17T21:17:50.021Z,87.47
2018-12-17T21:20:17.617Z,87.33
2018-12-17T21:22:45.229Z,87.53
2018-12-17T21:25:12.878Z,87.66
2018-12-17T21:27:40.425Z,87.13
2018-12-17T21:30:09.135Z,87.29
2018-12-17T21:32:36.885Z,87.78
2018-12-17T21:35:05.621Z,87.44
2018-12-17T21:37:33.267Z,87.38
2018-12-17T21:40:01.256Z,87.15
2018-12-17T21:42:29.137Z,87.16
2018-12-17T21:44:56.691Z,86.70
2018-12-17T21:47:24.346Z,87.48
2018-12-17T21:49:51.901Z,86.83
2018-12-17T21:52:19.511Z,87.15
2018-12-17T21:54:47.646Z,86.98
2018-12-17T21:57:15.614Z,87.31
2018-12-17T21:59:43.315Z,86.74
2018-12-17T22:02:11.817Z,86.96
2018-12-17T22:04:39.437Z,87.10
2018-12-17T22:07:07.022Z,86.97
2018-12-17T22:09:34.661Z,87.27
2018-12-17T22:12:02.253Z,87.23
2018-12-17T22:14:29.885Z,87.30
2018-12-17T22:16:59.594Z,87.34
2018-12-17T22:19:27.515Z,87.26
2018-12-17T22:21:55.086Z,87.44
2018-12-17T22:24:22.972Z,86.90
2018-12-17T22:26:50.843Z,87.07
2018-12-17T22:29:18.797Z,87.20
2018-12-17T22:31:46.526Z,86.91
2018-12-17T22:34:14.164Z,87.30
2018-12-17T22:36:41.712Z,86.54
2018-12-17T22:39:09.320Z,87.10
2018-12-17T22:41:37.229Z,87.33
2018-12-17T22:44:04.799Z,87.49
2018-12-17T22:46:32.389Z,86.99
2018-12-17T22:48:59.973Z,86.79
2018-12-17T22:51:27.545Z,86.94
2018-12-17T22:53:55.142Z,87.04
2018-12-17T22:56:22.684Z,86.91
2018-12-17T22:58:53.350Z,87.12
2018-12-17T23:01:39.065Z,86.68
2018-12-17T23:04:07.498Z,87.09
2018-12-17T23:06:35.099Z,86.79
2018-12-17T23:09:06.425Z,86.91
2018-12-17T23:11:51.733Z,86.82
2018-12-17T23:14:31.130Z,86.93
2018-12-17T23:17:10.865Z,86.75
2018-12-17T23:19:42.631Z,87.47
2018-12-17T23:22:11.065Z,87.29
2018-12-17T23:24:38.822Z,87.50
2018-12-17T23:27:06.837Z,87.54
2018-12-17T23:29:34.806Z,87.07
2018-12-17T23:32:02.417Z,87.26
2018-12-17T23:34:30.331Z,87.82
2018-12-17T23:36:57.952Z,87.63
2018-12-17T23:39:25.520Z,87.85
2018-12-17T23:41:53.114Z,87.33
2018-12-17T23:44:20.698Z,87.63
2018-12-17T23:46:48.661Z,87.99
2018-12-17T23:49:16.263Z,88.39
2018-12-17T23:51:43.855Z,88.34
2018-12-17T23:54:11.499Z,87.99
2018-12-17T23:56:39.148Z,88.14
2018-12-17T23:59:06.981Z,88.92
